sensor_id;sensor_type;location;lat;lon;timestamp;P1;durP1;ratioP1;P2;durP2;ratioP2
82926;SDS011;72788;40.218;44.486;2024-02-04T00:01:19;109.05;;;43.42;;
82926;SDS011;72788;40.218;44.486;2024-02-04T00:03:45;107.53;;;42.22;;
82926;SDS011;72788;40.218;44.486;2024-02-04T00:06:10;100.40;;;44.15;;
82926;SDS011;72788;40.218;44.486;2024-02-04T00:08:36;106.32;;;44.42;;
82926;SDS011;72788;40.218;44.486;2024-02-04T00:11:02;98.20;;;43.65;;
82926;SDS011;72788;40.218;44.486;2024-02-04T00:13:30;101.10;;;43.47;;
82926;SDS011;72788;40.218;44.486;2024-02-04T00:15:55;107.93;;;45.25;;
82926;SDS011;72788;40.218;44.486;2024-02-04T00:18:24;106.50;;;42.00;;
82926;SDS011;72788;40.218;44.486;2024-02-04T00:20:50;105.85;;;44.80;;
82926;SDS011;72788;40.218;44.486;2024-02-04T00:23:15;115.07;;;44.45;;
82926;SDS011;72788;40.218;44.486;2024-02-04T00:25:41;109.45;;;46.42;;
82926;SDS011;72788;40.218;44.486;2024-02-04T00:28:07;103.68;;;43.60;;
82926;SDS011;72788;40.218;44.486;2024-02-04T00:30:36;97.85;;;40.80;;
82926;SDS011;72788;40.218;44.486;2024-02-04T00:33:03;95.20;;;39.60;;
82926;SDS011;72788;40.218;44.486;2024-02-04T00:35:29;101.35;;;40.88;;
82926;SDS011;72788;40.218;44.486;2024-02-04T00:37:55;98.85;;;42.72;;
82926;SDS011;72788;40.218;44.486;2024-02-04T00:40:20;94.30;;;39.45;;
82926;SDS011;72788;40.218;44.486;2024-02-04T00:42:46;94.05;;;39.80;;
82926;SDS011;72788;40.218;44.486;2024-02-04T00:45:12;90.70;;;36.35;;
82926;SDS011;72788;40.218;44.486;2024-02-04T00:47:37;87.45;;;36.92;;
82926;SDS011;72788;40.218;44.486;2024-02-04T00:50:03;79.55;;;37.97;;
82926;SDS011;72788;40.218;44.486;2024-02-04T00:52:29;83.55;;;36.00;;
82926;SDS011;72788;40.218;44.486;2024-02-04T00:54:55;90.43;;;37.58;;
82926;SDS011;72788;40.218;44.486;2024-02-04T00:57:21;88.82;;;36.83;;
82926;SDS011;72788;40.218;44.486;2024-02-04T00:59:46;91.30;;;37.70;;
82926;SDS011;72788;40.218;44.486;2024-02-04T01:02:12;99.07;;;40.38;;
82926;SDS011;72788;40.218;44.486;2024-02-04T01:04:37;100.50;;;43.42;;
82926;SDS011;72788;40.218;44.486;2024-02-04T01:07:03;98.63;;;46.47;;
82926;SDS011;72788;40.218;44.486;2024-02-04T01:09:29;112.13;;;43.50;;
82926;SDS011;72788;40.218;44.486;2024-02-04T01:11:55;96.25;;;42.25;;
82926;SDS011;72788;40.218;44.486;2024-02-04T01:14:20;105.85;;;45.40;;
82926;SDS011;72788;40.218;44.486;2024-02-04T01:16:46;112.40;;;46.50;;
82926;SDS011;72788;40.218;44.486;2024-02-04T01:19:12;110.32;;;47.70;;
82926;SDS011;72788;40.218;44.486;2024-02-04T01:21:37;111.60;;;46.40;;
82926;SDS011;72788;40.218;44.486;2024-02-04T01:24:03;111.47;;;45.08;;
82926;SDS011;72788;40.218;44.486;2024-02-04T01:26:29;106.22;;;46.28;;
82926;SDS011;72788;40.218;44.486;2024-02-04T01:28:54;117.28;;;48.65;;
82926;SDS011;72788;40.218;44.486;2024-02-04T01:31:20;105.22;;;46.83;;
82926;SDS011;72788;40.218;44.486;2024-02-04T01:33:46;114.00;;;46.97;;
82926;SDS011;72788;40.218;44.486;2024-02-04T01:36:11;113.88;;;45.58;;
82926;SDS011;72788;40.218;44.486;2024-02-04T01:38:37;108.38;;;46.30;;
82926;SDS011;72788;40.218;44.486;2024-02-04T01:41:03;111.95;;;44.53;;
82926;SDS011;72788;40.218;44.486;2024-02-04T01:43:29;118.70;;;45.25;;
82926;SDS011;72788;40.218;44.486;2024-02-04T01:45:55;109.32;;;41.83;;
82926;SDS011;72788;40.218;44.486;2024-02-04T01:48:21;95.47;;;41.83;;
82926;SDS011;72788;40.218;44.486;2024-02-04T01:50:47;95.07;;;43.13;;
82926;SDS011;72788;40.218;44.486;2024-02-04T01:53:17;102.47;;;39.92;;
82926;SDS011;72788;40.218;44.486;2024-02-04T01:55:45;118.03;;;45.95;;
82926;SDS011;72788;40.218;44.486;2024-02-04T01:58:11;104.78;;;44.22;;
82926;SDS011;72788;40.218;44.486;2024-02-04T02:00:36;99.20;;;41.35;;
82926;SDS011;72788;40.218;44.486;2024-02-04T02:03:04;87.25;;;39.35;;
82926;SDS011;72788;40.218;44.486;2024-02-04T02:05:33;90.47;;;40.40;;
82926;SDS011;72788;40.218;44.486;2024-02-04T02:07:59;97.07;;;42.38;;
82926;SDS011;72788;40.218;44.486;2024-02-04T02:10:25;83.35;;;38.50;;
82926;SDS011;72788;40.218;44.486;2024-02-04T02:13:04;78.18;;;34.40;;
82926;SDS011;72788;40.218;44.486;2024-02-04T02:15:40;96.93;;;42.33;;
82926;SDS011;72788;40.218;44.486;2024-02-04T02:18:13;110.95;;;43.13;;
82926;SDS011;72788;40.218;44.486;2024-02-04T02:26:36;105.72;;;40.47;;
82926;SDS011;72788;40.218;44.486;2024-02-04T02:29:04;95.38;;;41.40;;
82926;SDS011;72788;40.218;44.486;2024-02-04T02:31:30;103.75;;;42.47;;
82926;SDS011;72788;40.218;44.486;2024-02-04T02:33:57;93.68;;;41.00;;
82926;SDS011;72788;40.218;44.486;2024-02-04T02:36:23;105.63;;;39.45;;
82926;SDS011;72788;40.218;44.486;2024-02-04T02:38:53;112.88;;;42.15;;
82926;SDS011;72788;40.218;44.486;2024-02-04T02:41:23;103.93;;;43.38;;
82926;SDS011;72788;40.218;44.486;2024-02-04T02:43:52;106.93;;;41.47;;
82926;SDS011;72788;40.218;44.486;2024-02-04T02:46:20;111.43;;;43.92;;
82926;SDS011;72788;40.218;44.486;2024-02-04T02:48:46;104.00;;;41.70;;
82926;SDS011;72788;40.218;44.486;2024-02-04T02:51:12;112.38;;;43.42;;
82926;SDS011;72788;40.218;44.486;2024-02-04T02:53:38;110.13;;;44.42;;
82926;SDS011;72788;40.218;44.486;2024-02-04T02:56:03;108.57;;;44.65;;
82926;SDS011;72788;40.218;44.486;2024-02-04T02:58:29;105.85;;;42.80;;
82926;SDS011;72788;40.218;44.486;2024-02-04T03:00:56;113.63;;;45.92;;
82926;SDS011;72788;40.218;44.486;2024-02-04T03:03:22;112.97;;;44.50;;
82926;SDS011;72788;40.218;44.486;2024-02-04T03:05:47;108.22;;;43.65;;
82926;SDS011;72788;40.218;44.486;2024-02-04T03:08:13;131.57;;;44.72;;
82926;SDS011;72788;40.218;44.486;2024-02-04T03:10:38;108.22;;;43.22;;
82926;SDS011;72788;40.218;44.486;2024-02-04T03:13:04;111.05;;;42.95;;
82926;SDS011;72788;40.218;44.486;2024-02-04T03:15:30;112.18;;;42.58;;
82926;SDS011;72788;40.218;44.486;2024-02-04T03:17:56;106.53;;;42.05;;
82926;SDS011;72788;40.218;44.486;2024-02-04T03:20:22;121.20;;;45.95;;
82926;SDS011;72788;40.218;44.486;2024-02-04T03:22:47;102.30;;;40.33;;
82926;SDS011;72788;40.218;44.486;2024-02-04T03:25:13;111.93;;;42.20;;
82926;SDS011;72788;40.218;44.486;2024-02-04T03:27:39;113.60;;;42.00;;
82926;SDS011;72788;40.218;44.486;2024-02-04T03:30:05;97.07;;;37.97;;
82926;SDS011;72788;40.218;44.486;2024-02-04T03:32:31;101.00;;;42.13;;
82926;SDS011;72788;40.218;44.486;2024-02-04T03:35:02;106.25;;;44.15;;
82926;SDS011;72788;40.218;44.486;2024-02-04T03:37:28;102.15;;;41.95;;
82926;SDS011;72788;40.218;44.486;2024-02-04T03:39:53;106.03;;;42.28;;
82926;SDS011;72788;40.218;44.486;2024-02-04T03:42:19;99.93;;;39.30;;
82926;SDS011;72788;40.218;44.486;2024-02-04T03:44:46;114.38;;;44.55;;
82926;SDS011;72788;40.218;44.486;2024-02-04T03:47:12;104.68;;;42.40;;
82926;SDS011;72788;40.218;44.486;2024-02-04T03:49:38;108.35;;;45.95;;
82926;SDS011;72788;40.218;44.486;2024-02-04T03:52:03;116.80;;;44.55;;
82926;SDS011;72788;40.218;44.486;2024-02-04T03:54:29;103.43;;;46.03;;
82926;SDS011;72788;40.218;44.486;2024-02-04T03:56:55;103.03;;;42.92;;
82926;SDS011;72788;40.218;44.486;2024-02-04T03:59:20;114.88;;;47.40;;
82926;SDS011;72788;40.218;44.486;2024-02-04T04:01:47;110.00;;;42.35;;
82926;SDS011;72788;40.218;44.486;2024-02-04T04:04:13;110.90;;;46.70;;
82926;SDS011;72788;40.218;44.486;2024-02-04T04:06:39;104.72;;;43.55;;
82926;SDS011;72788;40.218;44.486;2024-02-04T04:09:05;103.72;;;45.70;;
82926;SDS011;72788;40.218;44.486;2024-02-04T04:11:31;109.03;;;45.22;;
82926;SDS011;72788;40.218;44.486;2024-02-04T04:13:57;113.25;;;48.08;;
82926;SDS011;72788;40.218;44.486;2024-02-04T04:16:23;106.22;;;44.38;;
82926;SDS011;72788;40.218;44.486;2024-02-04T04:18:49;123.20;;;45.88;;
82926;SDS011;72788;40.218;44.486;2024-02-04T04:21:15;113.63;;;44.22;;
82926;SDS011;72788;40.218;44.486;2024-02-04T04:23:41;105.97;;;45.50;;
82926;SDS011;72788;40.218;44.486;2024-02-04T04:26:07;111.07;;;46.75;;
82926;SDS011;72788;40.218;44.486;2024-02-04T04:28:32;141.77;;;46.90;;
82926;SDS011;72788;40.218;44.486;2024-02-04T04:30:58;114.43;;;44.45;;
82926;SDS011;72788;40.218;44.486;2024-02-04T04:33:23;109.93;;;43.97;;
82926;SDS011;72788;40.218;44.486;2024-02-04T04:35:49;106.50;;;44.22;;
82926;SDS011;72788;40.218;44.486;2024-02-04T04:38:15;105.72;;;44.65;;
82926;SDS011;72788;40.218;44.486;2024-02-04T04:40:40;101.00;;;43.75;;
82926;SDS011;72788;40.218;44.486;2024-02-04T04:43:06;106.13;;;42.60;;
82926;SDS011;72788;40.218;44.486;2024-02-04T04:45:32;108.57;;;41.90;;
82926;SDS011;72788;40.218;44.486;2024-02-04T04:47:57;96.70;;;41.90;;
82926;SDS011;72788;40.218;44.486;2024-02-04T04:50:23;104.38;;;42.70;;
82926;SDS011;72788;40.218;44.486;2024-02-04T04:52:49;102.75;;;41.90;;
82926;SDS011;72788;40.218;44.486;2024-02-04T04:55:15;109.70;;;40.85;;
82926;SDS011;72788;40.218;44.486;2024-02-04T04:57:40;103.65;;;43.88;;
82926;SDS011;72788;40.218;44.486;2024-02-04T05:00:06;113.93;;;43.53;;
82926;SDS011;72788;40.218;44.486;2024-02-04T05:02:35;106.05;;;45.08;;
82926;SDS011;72788;40.218;44.486;2024-02-04T05:05:01;113.95;;;44.45;;
82926;SDS011;72788;40.218;44.486;2024-02-04T05:07:27;104.38;;;40.78;;
82926;SDS011;72788;40.218;44.486;2024-02-04T05:09:52;110.47;;;43.10;;
82926;SDS011;72788;40.218;44.486;2024-02-04T05:12:19;127.35;;;47.50;;
82926;SDS011;72788;40.218;44.486;2024-02-04T05:14:45;117.75;;;48.70;;
82926;SDS011;72788;40.218;44.486;2024-02-04T05:17:10;119.82;;;47.63;;
82926;SDS011;72788;40.218;44.486;2024-02-04T05:19:40;124.38;;;46.83;;
82926;SDS011;72788;40.218;44.486;2024-02-04T05:22:07;110.68;;;45.35;;
82926;SDS011;72788;40.218;44.486;2024-02-04T05:24:33;113.80;;;45.47;;
82926;SDS011;72788;40.218;44.486;2024-02-04T05:26:59;116.13;;;45.85;;
82926;SDS011;72788;40.218;44.486;2024-02-04T05:29:24;113.40;;;46.67;;
82926;SDS011;72788;40.218;44.486;2024-02-04T05:31:50;120.63;;;45.92;;
82926;SDS011;72788;40.218;44.486;2024-02-04T05:34:15;109.28;;;44.53;;
82926;SDS011;72788;40.218;44.486;2024-02-04T05:36:42;105.50;;;46.40;;
82926;SDS011;72788;40.218;44.486;2024-02-04T05:39:11;110.78;;;44.15;;
82926;SDS011;72788;40.218;44.486;2024-02-04T05:41:38;101.10;;;41.70;;
82926;SDS011;72788;40.218;44.486;2024-02-04T05:44:05;109.13;;;41.53;;
82926;SDS011;72788;40.218;44.486;2024-02-04T05:46:31;96.38;;;41.95;;
82926;SDS011;72788;40.218;44.486;2024-02-04T05:48:57;111.07;;;45.53;;
82926;SDS011;72788;40.218;44.486;2024-02-04T05:51:23;105.80;;;41.45;;
82926;SDS011;72788;40.218;44.486;2024-02-04T05:53:49;100.75;;;44.55;;
82926;SDS011;72788;40.218;44.486;2024-02-04T05:56:14;98.80;;;41.78;;
82926;SDS011;72788;40.218;44.486;2024-02-04T05:58:40;94.85;;;40.40;;
82926;SDS011;72788;40.218;44.486;2024-02-04T06:01:06;101.75;;;42.55;;
82926;SDS011;72788;40.218;44.486;2024-02-04T06:03:31;99.63;;;41.90;;
82926;SDS011;72788;40.218;44.486;2024-02-04T06:05:57;116.93;;;41.15;;
82926;SDS011;72788;40.218;44.486;2024-02-04T06:08:22;107.05;;;40.15;;
82926;SDS011;72788;40.218;44.486;2024-02-04T06:10:48;90.00;;;39.75;;
82926;SDS011;72788;40.218;44.486;2024-02-04T06:13:14;92.75;;;39.53;;
82926;SDS011;72788;40.218;44.486;2024-02-04T06:15:39;88.60;;;37.70;;
82926;SDS011;72788;40.218;44.486;2024-02-04T06:18:05;91.97;;;40.50;;
82926;SDS011;72788;40.218;44.486;2024-02-04T06:20:31;78.00;;;36.15;;
82926;SDS011;72788;40.218;44.486;2024-02-04T06:22:56;73.68;;;34.20;;
82926;SDS011;72788;40.218;44.486;2024-02-04T06:25:26;73.97;;;32.05;;
82926;SDS011;72788;40.218;44.486;2024-02-04T06:27:51;66.95;;;27.80;;
82926;SDS011;72788;40.218;44.486;2024-02-04T06:30:17;59.25;;;27.00;;
82926;SDS011;72788;40.218;44.486;2024-02-04T06:32:42;61.17;;;28.80;;
82926;SDS011;72788;40.218;44.486;2024-02-04T06:35:08;62.15;;;29.13;;
82926;SDS011;72788;40.218;44.486;2024-02-04T06:37:34;56.70;;;26.38;;
82926;SDS011;72788;40.218;44.486;2024-02-04T06:39:59;60.25;;;27.55;;
82926;SDS011;72788;40.218;44.486;2024-02-04T06:42:25;62.20;;;26.58;;
82926;SDS011;72788;40.218;44.486;2024-02-04T06:44:51;55.40;;;24.98;;
82926;SDS011;72788;40.218;44.486;2024-02-04T06:47:16;50.90;;;23.92;;
82926;SDS011;72788;40.218;44.486;2024-02-04T06:49:45;54.75;;;23.38;;
82926;SDS011;72788;40.218;44.486;2024-02-04T06:52:11;47.00;;;22.17;;
82926;SDS011;72788;40.218;44.486;2024-02-04T06:54:37;51.38;;;23.80;;
82926;SDS011;72788;40.218;44.486;2024-02-04T06:57:02;50.80;;;23.05;;
82926;SDS011;72788;40.218;44.486;2024-02-04T06:59:28;52.33;;;22.98;;
82926;SDS011;72788;40.218;44.486;2024-02-04T07:01:54;47.63;;;21.85;;
82926;SDS011;72788;40.218;44.486;2024-02-04T07:04:19;40.83;;;19.30;;
82926;SDS011;72788;40.218;44.486;2024-02-04T07:06:47;46.63;;;20.88;;
82926;SDS011;72788;40.218;44.486;2024-02-04T07:09:13;45.65;;;21.55;;
82926;SDS011;72788;40.218;44.486;2024-02-04T07:11:39;43.50;;;19.90;;
82926;SDS011;72788;40.218;44.486;2024-02-04T07:14:04;46.30;;;21.38;;
82926;SDS011;72788;40.218;44.486;2024-02-04T07:16:31;47.13;;;21.63;;
82926;SDS011;72788;40.218;44.486;2024-02-04T07:18:57;48.38;;;22.85;;
82926;SDS011;72788;40.218;44.486;2024-02-04T07:21:22;48.60;;;24.23;;
82926;SDS011;72788;40.218;44.486;2024-02-04T07:23:48;52.85;;;23.60;;
82926;SDS011;72788;40.218;44.486;2024-02-04T07:26:14;55.67;;;24.88;;
82926;SDS011;72788;40.218;44.486;2024-02-04T07:28:39;49.88;;;22.95;;
82926;SDS011;72788;40.218;44.486;2024-02-04T07:31:05;47.22;;;23.58;;
82926;SDS011;72788;40.218;44.486;2024-02-04T07:33:31;48.97;;;22.77;;
82926;SDS011;72788;40.218;44.486;2024-02-04T07:35:56;54.83;;;25.35;;
82926;SDS011;72788;40.218;44.486;2024-02-04T07:38:22;51.88;;;24.98;;
82926;SDS011;72788;40.218;44.486;2024-02-04T07:40:48;59.55;;;25.55;;
82926;SDS011;72788;40.218;44.486;2024-02-04T07:43:13;58.20;;;25.33;;
82926;SDS011;72788;40.218;44.486;2024-02-04T07:45:39;55.88;;;26.08;;
82926;SDS011;72788;40.218;44.486;2024-02-04T07:48:05;55.08;;;26.30;;
82926;SDS011;72788;40.218;44.486;2024-02-04T07:50:31;53.88;;;27.45;;
82926;SDS011;72788;40.218;44.486;2024-02-04T07:52:57;58.95;;;27.35;;
82926;SDS011;72788;40.218;44.486;2024-02-04T07:55:23;58.53;;;27.48;;
82926;SDS011;72788;40.218;44.486;2024-02-04T07:57:48;59.67;;;27.33;;
82926;SDS011;72788;40.218;44.486;2024-02-04T08:00:14;91.63;;;38.83;;
82926;SDS011;72788;40.218;44.486;2024-02-04T08:02:40;142.25;;;55.42;;
82926;SDS011;72788;40.218;44.486;2024-02-04T08:05:06;125.72;;;55.08;;
82926;SDS011;72788;40.218;44.486;2024-02-04T08:07:32;129.38;;;56.15;;
82926;SDS011;72788;40.218;44.486;2024-02-04T08:09:57;138.35;;;57.75;;
82926;SDS011;72788;40.218;44.486;2024-02-04T08:12:23;143.25;;;55.70;;
82926;SDS011;72788;40.218;44.486;2024-02-04T08:14:49;139.98;;;57.17;;
82926;SDS011;72788;40.218;44.486;2024-02-04T08:17:14;128.73;;;54.70;;
82926;SDS011;72788;40.218;44.486;2024-02-04T08:19:40;126.88;;;54.53;;
82926;SDS011;72788;40.218;44.486;2024-02-04T08:22:06;127.07;;;56.97;;
82926;SDS011;72788;40.218;44.486;2024-02-04T08:24:32;119.97;;;54.90;;
82926;SDS011;72788;40.218;44.486;2024-02-04T08:26:58;131.38;;;54.72;;
82926;SDS011;72788;40.218;44.486;2024-02-04T08:29:24;121.68;;;52.30;;
82926;SDS011;72788;40.218;44.486;2024-02-04T08:31:52;122.40;;;52.38;;
82926;SDS011;72788;40.218;44.486;2024-02-04T08:34:18;132.75;;;53.75;;
82926;SDS011;72788;40.218;44.486;2024-02-04T08:36:45;125.55;;;53.65;;
82926;SDS011;72788;40.218;44.486;2024-02-04T08:39:11;121.25;;;51.22;;
82926;SDS011;72788;40.218;44.486;2024-02-04T08:41:37;134.30;;;51.88;;
82926;SDS011;72788;40.218;44.486;2024-02-04T08:44:02;125.50;;;52.42;;
82926;SDS011;72788;40.218;44.486;2024-02-04T08:46:28;125.88;;;51.47;;
82926;SDS011;72788;40.218;44.486;2024-02-04T08:48:54;122.82;;;50.60;;
82926;SDS011;72788;40.218;44.486;2024-02-04T08:51:19;114.32;;;51.15;;
82926;SDS011;72788;40.218;44.486;2024-02-04T08:53:45;116.47;;;50.33;;
82926;SDS011;72788;40.218;44.486;2024-02-04T08:56:11;117.07;;;50.95;;
82926;SDS011;72788;40.218;44.486;2024-02-04T08:58:36;125.53;;;50.05;;
82926;SDS011;72788;40.218;44.486;2024-02-04T09:01:05;112.95;;;49.33;;
82926;SDS011;72788;40.218;44.486;2024-02-04T09:03:31;127.95;;;51.72;;
82926;SDS011;72788;40.218;44.486;2024-02-04T09:05:58;118.97;;;50.50;;
82926;SDS011;72788;40.218;44.486;2024-02-04T09:08:23;124.40;;;47.72;;
82926;SDS011;72788;40.218;44.486;2024-02-04T09:10:49;118.22;;;49.97;;
82926;SDS011;72788;40.218;44.486;2024-02-04T09:13:15;116.97;;;50.00;;
82926;SDS011;72788;40.218;44.486;2024-02-04T09:15:40;114.13;;;47.75;;
82926;SDS011;72788;40.218;44.486;2024-02-04T09:18:07;119.43;;;48.83;;
82926;SDS011;72788;40.218;44.486;2024-02-04T09:20:32;117.65;;;47.67;;
82926;SDS011;72788;40.218;44.486;2024-02-04T09:22:58;108.18;;;48.13;;
82926;SDS011;72788;40.218;44.486;2024-02-04T09:25:27;120.65;;;48.03;;
82926;SDS011;72788;40.218;44.486;2024-02-04T09:27:52;117.63;;;47.22;;
82926;SDS011;72788;40.218;44.486;2024-02-04T09:30:18;104.95;;;45.42;;
82926;SDS011;72788;40.218;44.486;2024-02-04T09:32:44;119.55;;;46.75;;
82926;SDS011;72788;40.218;44.486;2024-02-04T09:35:09;115.72;;;48.38;;
82926;SDS011;72788;40.218;44.486;2024-02-04T09:37:35;106.85;;;45.13;;
82926;SDS011;72788;40.218;44.486;2024-02-04T09:40:01;108.35;;;46.78;;
82926;SDS011;72788;40.218;44.486;2024-02-04T09:42:27;119.07;;;46.90;;
82926;SDS011;72788;40.218;44.486;2024-02-04T09:44:53;101.93;;;43.72;;
82926;SDS011;72788;40.218;44.486;2024-02-04T09:47:20;103.03;;;44.25;;
82926;SDS011;72788;40.218;44.486;2024-02-04T09:49:46;113.78;;;45.95;;
82926;SDS011;72788;40.218;44.486;2024-02-04T09:52:12;112.85;;;48.10;;
82926;SDS011;72788;40.218;44.486;2024-02-04T09:54:49;102.55;;;45.47;;
82926;SDS011;72788;40.218;44.486;2024-02-04T09:57:20;117.80;;;45.72;;
82926;SDS011;72788;40.218;44.486;2024-02-04T09:59:46;105.20;;;43.47;;
82926;SDS011;72788;40.218;44.486;2024-02-04T10:02:13;101.07;;;44.17;;
82926;SDS011;72788;40.218;44.486;2024-02-04T10:04:38;105.97;;;43.78;;
82926;SDS011;72788;40.218;44.486;2024-02-04T10:07:04;112.57;;;43.92;;
82926;SDS011;72788;40.218;44.486;2024-02-04T10:09:30;97.15;;;43.72;;
82926;SDS011;72788;40.218;44.486;2024-02-04T10:11:56;98.63;;;43.33;;
82926;SDS011;72788;40.218;44.486;2024-02-04T10:14:22;106.97;;;44.38;;
82926;SDS011;72788;40.218;44.486;2024-02-04T10:16:49;102.35;;;42.30;;
82926;SDS011;72788;40.218;44.486;2024-02-04T10:19:15;94.60;;;43.45;;
82926;SDS011;72788;40.218;44.486;2024-02-04T10:21:40;111.55;;;44.35;;
82926;SDS011;72788;40.218;44.486;2024-02-04T10:24:06;101.55;;;43.80;;
82926;SDS011;72788;40.218;44.486;2024-02-04T10:26:32;92.28;;;39.83;;
82926;SDS011;72788;40.218;44.486;2024-02-04T10:29:03;91.20;;;38.53;;
82926;SDS011;72788;40.218;44.486;2024-02-04T10:31:29;92.13;;;38.38;;
82926;SDS011;72788;40.218;44.486;2024-02-04T10:33:55;95.90;;;41.55;;
82926;SDS011;72788;40.218;44.486;2024-02-04T10:36:21;93.63;;;43.42;;
82926;SDS011;72788;40.218;44.486;2024-02-04T10:38:47;114.15;;;47.08;;
82926;SDS011;72788;40.218;44.486;2024-02-04T10:41:14;98.55;;;42.05;;
82926;SDS011;72788;40.218;44.486;2024-02-04T10:43:42;95.50;;;42.70;;
82926;SDS011;72788;40.218;44.486;2024-02-04T10:46:09;101.43;;;44.65;;
82926;SDS011;72788;40.218;44.486;2024-02-04T10:48:39;107.18;;;44.97;;
82926;SDS011;72788;40.218;44.486;2024-02-04T10:51:12;111.03;;;44.63;;
82926;SDS011;72788;40.218;44.486;2024-02-04T10:53:43;109.22;;;46.95;;
82926;SDS011;72788;40.218;44.486;2024-02-04T10:56:37;106.30;;;44.25;;
82926;SDS011;72788;40.218;44.486;2024-02-04T10:58:57;99.43;;;43.50;;
82926;SDS011;72788;40.218;44.486;2024-02-04T11:01:25;99.97;;;40.20;;
82926;SDS011;72788;40.218;44.486;2024-02-04T11:03:51;92.18;;;41.67;;
82926;SDS011;72788;40.218;44.486;2024-02-04T11:06:23;96.20;;;40.40;;
82926;SDS011;72788;40.218;44.486;2024-02-04T11:08:50;91.50;;;40.45;;
82926;SDS011;72788;40.218;44.486;2024-02-04T11:11:19;105.28;;;41.28;;
82926;SDS011;72788;40.218;44.486;2024-02-04T11:13:49;90.50;;;40.15;;
82926;SDS011;72788;40.218;44.486;2024-02-04T11:27:54;90.95;;;39.92;;
82926;SDS011;72788;40.218;44.486;2024-02-04T11:30:19;83.38;;;38.17;;
82926;SDS011;72788;40.218;44.486;2024-02-04T11:32:45;91.10;;;39.80;;
82926;SDS011;72788;40.218;44.486;2024-02-04T11:35:11;88.47;;;41.08;;
82926;SDS011;72788;40.218;44.486;2024-02-04T11:37:38;91.85;;;39.80;;
82926;SDS011;72788;40.218;44.486;2024-02-04T11:40:07;95.30;;;41.83;;
82926;SDS011;72788;40.218;44.486;2024-02-04T11:42:33;88.43;;;38.45;;
82926;SDS011;72788;40.218;44.486;2024-02-04T11:45:12;88.07;;;38.55;;
82926;SDS011;72788;40.218;44.486;2024-02-04T11:47:41;84.78;;;37.88;;
82926;SDS011;72788;40.218;44.486;2024-02-04T11:50:07;86.03;;;36.72;;
82926;SDS011;72788;40.218;44.486;2024-02-04T11:52:34;84.38;;;37.17;;
82926;SDS011;72788;40.218;44.486;2024-02-04T11:55:00;79.28;;;35.97;;
82926;SDS011;72788;40.218;44.486;2024-02-04T11:57:26;92.60;;;38.03;;
82926;SDS011;72788;40.218;44.486;2024-02-04T11:59:52;89.30;;;37.70;;
82926;SDS011;72788;40.218;44.486;2024-02-04T12:02:22;95.50;;;39.80;;
82926;SDS011;72788;40.218;44.486;2024-02-04T12:04:48;87.20;;;37.35;;
82926;SDS011;72788;40.218;44.486;2024-02-04T12:07:14;86.47;;;35.75;;
82926;SDS011;72788;40.218;44.486;2024-02-04T12:09:40;80.38;;;35.53;;
82926;SDS011;72788;40.218;44.486;2024-02-04T12:12:06;87.55;;;35.75;;
82926;SDS011;72788;40.218;44.486;2024-02-04T12:14:34;73.03;;;32.40;;
82926;SDS011;72788;40.218;44.486;2024-02-04T12:17:06;77.25;;;35.17;;
82926;SDS011;72788;40.218;44.486;2024-02-04T12:19:33;77.68;;;33.92;;
82926;SDS011;72788;40.218;44.486;2024-02-04T12:21:59;78.70;;;34.08;;
82926;SDS011;72788;40.218;44.486;2024-02-04T12:24:24;75.00;;;34.60;;
82926;SDS011;72788;40.218;44.486;2024-02-04T12:26:50;88.28;;;37.47;;
82926;SDS011;72788;40.218;44.486;2024-02-04T12:29:16;98.70;;;37.97;;
82926;SDS011;72788;40.218;44.486;2024-02-04T12:31:42;78.75;;;37.53;;
82926;SDS011;72788;40.218;44.486;2024-02-04T12:34:08;80.90;;;37.15;;
82926;SDS011;72788;40.218;44.486;2024-02-04T12:36:34;83.80;;;35.72;;
82926;SDS011;72788;40.218;44.486;2024-02-04T12:39:00;80.82;;;35.15;;
82926;SDS011;72788;40.218;44.486;2024-02-04T12:41:27;80.40;;;33.50;;
82926;SDS011;72788;40.218;44.486;2024-02-04T12:43:59;67.00;;;29.45;;
82926;SDS011;72788;40.218;44.486;2024-02-04T12:48:57;71.57;;;29.98;;
82926;SDS011;72788;40.218;44.486;2024-02-04T12:51:27;72.32;;;29.75;;
82926;SDS011;72788;40.218;44.486;2024-02-04T12:54:07;71.30;;;29.67;;
82926;SDS011;72788;40.218;44.486;2024-02-04T12:56:44;68.07;;;30.25;;
82926;SDS011;72788;40.218;44.486;2024-02-04T12:59:12;75.45;;;30.10;;
82926;SDS011;72788;40.218;44.486;2024-02-04T13:02:00;79.68;;;31.08;;
82926;SDS011;72788;40.218;44.486;2024-02-04T13:04:35;76.55;;;32.05;;
82926;SDS011;72788;40.218;44.486;2024-02-04T13:07:11;75.97;;;32.45;;
82926;SDS011;72788;40.218;44.486;2024-02-04T13:09:39;73.68;;;32.15;;
82926;SDS011;72788;40.218;44.486;2024-02-04T13:12:09;67.45;;;31.17;;
82926;SDS011;72788;40.218;44.486;2024-02-04T13:14:39;64.45;;;31.65;;
82926;SDS011;72788;40.218;44.486;2024-02-04T13:19:35;61.10;;;27.90;;
82926;SDS011;72788;40.218;44.486;2024-02-04T13:22:03;71.72;;;29.55;;
82926;SDS011;72788;40.218;44.486;2024-02-04T13:24:29;68.18;;;30.27;;
82926;SDS011;72788;40.218;44.486;2024-02-04T13:26:57;75.38;;;30.63;;
82926;SDS011;72788;40.218;44.486;2024-02-04T13:29:24;71.53;;;30.75;;
82926;SDS011;72788;40.218;44.486;2024-02-04T13:31:49;74.90;;;31.13;;
82926;SDS011;72788;40.218;44.486;2024-02-04T13:34:15;68.32;;;30.15;;
82926;SDS011;72788;40.218;44.486;2024-02-04T13:36:41;66.47;;;29.70;;
82926;SDS011;72788;40.218;44.486;2024-02-04T13:39:07;64.28;;;30.17;;
82926;SDS011;72788;40.218;44.486;2024-02-04T13:41:33;78.88;;;30.30;;
82926;SDS011;72788;40.218;44.486;2024-02-04T13:43:59;73.93;;;32.80;;
82926;SDS011;72788;40.218;44.486;2024-02-04T13:46:24;82.97;;;37.92;;
82926;SDS011;72788;40.218;44.486;2024-02-04T13:48:50;85.93;;;36.15;;
82926;SDS011;72788;40.218;44.486;2024-02-04T13:51:16;84.00;;;32.10;;
82926;SDS011;72788;40.218;44.486;2024-02-04T13:53:42;71.05;;;31.55;;
82926;SDS011;72788;40.218;44.486;2024-02-04T13:56:08;75.32;;;34.05;;
82926;SDS011;72788;40.218;44.486;2024-02-04T13:58:33;79.32;;;34.08;;
82926;SDS011;72788;40.218;44.486;2024-02-04T14:00:59;84.45;;;32.80;;
82926;SDS011;72788;40.218;44.486;2024-02-04T14:03:25;86.57;;;33.63;;
82926;SDS011;72788;40.218;44.486;2024-02-04T14:05:50;76.63;;;32.25;;
82926;SDS011;72788;40.218;44.486;2024-02-04T14:08:16;79.78;;;33.45;;
82926;SDS011;72788;40.218;44.486;2024-02-04T14:10:42;81.97;;;34.25;;
82926;SDS011;72788;40.218;44.486;2024-02-04T14:13:08;80.03;;;33.65;;
82926;SDS011;72788;40.218;44.486;2024-02-04T14:15:33;76.55;;;34.47;;
82926;SDS011;72788;40.218;44.486;2024-02-04T14:17:59;81.53;;;33.50;;
82926;SDS011;72788;40.218;44.486;2024-02-04T14:20:25;77.45;;;35.22;;
82926;SDS011;72788;40.218;44.486;2024-02-04T14:22:51;72.13;;;31.65;;